AFV6767 FALE-FQBR
Flight info
| Callsign | AFV6767 |
|---|---|
| Flight time | 1h 37m |
| Altitude | 35000 |
| Route | ITMIL1C ITMIL UB529 VMA UM310 ETLAM ETLAM1A |
| Aircraft | A320/M-SDE3FGHIRWY/LB1 |
Departure
| Time | 2026-05-07 17:16 |
|---|---|
| Airport | King Shaka International Airport (FALE) |
Arrival
| Time | 2026-05-07 18:53 |
|---|---|
| Airport | Beira International Airport (FQBR) |
| Time | Latitude | Longitude | Altitude | Speed | Heading |
|---|---|---|---|---|---|
| 2026-05-07 16:50 | -29.61871 | 31.10655 | 283 ft | 0 kts | 308° |
| 2026-05-07 17:06 | -29.61872 | 31.10656 | 280 ft | 2 kts | 308° |
| 2026-05-07 17:06 | -29.61882 | 31.10671 | 280 ft | 2 kts | 308° |
| 2026-05-07 17:06 | -29.61892 | 31.10686 | 280 ft | 2 kts | 308° |
| 2026-05-07 17:07 | -29.61902 | 31.10701 | 283 ft | 2 kts | 289° |
| 2026-05-07 17:07 | -29.61901 | 31.10720 | 284 ft | 2 kts | 218° |
| 2026-05-07 17:07 | -29.61893 | 31.10727 | 285 ft | 0 kts | 217° |
| 2026-05-07 17:10 | -29.61903 | 31.10718 | 283 ft | 7 kts | 218° |
| 2026-05-07 17:10 | -29.61951 | 31.10675 | 280 ft | 10 kts | 218° |
| 2026-05-07 17:11 | -29.62009 | 31.10624 | 280 ft | 11 kts | 218° |
| 2026-05-07 17:11 | -29.62074 | 31.10566 | 280 ft | 13 kts | 218° |
| 2026-05-07 17:11 | -29.62123 | 31.10523 | 280 ft | 14 kts | 217° |
| 2026-05-07 17:11 | -29.62235 | 31.10431 | 280 ft | 15 kts | 197° |
| 2026-05-07 17:12 | -29.62283 | 31.10468 | 280 ft | 13 kts | 129° |
| 2026-05-07 17:12 | -29.62344 | 31.10555 | 280 ft | 15 kts | 128° |
| 2026-05-07 17:12 | -29.62403 | 31.10643 | 281 ft | 0 kts | 128° |
| 2026-05-07 17:13 | -29.62404 | 31.10643 | 281 ft | 1 kts | 128° |
| 2026-05-07 17:14 | -29.62411 | 31.10654 | 281 ft | 3 kts | 128° |
| 2026-05-07 17:14 | -29.62432 | 31.10685 | 281 ft | 9 kts | 126° |
| 2026-05-07 17:14 | -29.62471 | 31.10751 | 281 ft | 10 kts | 110° |
| 2026-05-07 17:14 | -29.62448 | 31.10822 | 283 ft | 10 kts | 45° |
| 2026-05-07 17:15 | -29.62317 | 31.10938 | 283 ft | 51 kts | 36° |
| 2026-05-07 17:15 | -29.61881 | 31.11318 | 281 ft | 106 kts | 33° |
| 2026-05-07 17:15 | -29.61170 | 31.11937 | 283 ft | 149 kts | 37° |
| 2026-05-07 17:15 | -29.60248 | 31.12744 | 324 ft | 179 kts | 40° |
| 2026-05-07 17:16 | -29.59286 | 31.13618 | 911 ft | 174 kts | 40° |
| 2026-05-07 17:16 | -29.58351 | 31.14501 | 1459 ft | 174 kts | 40° |
| 2026-05-07 17:16 | -29.57403 | 31.15386 | 1983 ft | 178 kts | 40° |
| 2026-05-07 17:16 | -29.56405 | 31.16312 | 2330 ft | 192 kts | 40° |
| 2026-05-07 17:17 | -29.55325 | 31.17312 | 2644 ft | 206 kts | 40° |
| 2026-05-07 17:17 | -29.54171 | 31.18382 | 2981 ft | 221 kts | 40° |
| 2026-05-07 17:17 | -29.52942 | 31.19528 | 3311 ft | 240 kts | 40° |
| 2026-05-07 17:17 | -29.51603 | 31.20787 | 3764 ft | 257 kts | 40° |
| 2026-05-07 17:18 | -29.50231 | 31.22184 | 4356 ft | 268 kts | 46° |
| 2026-05-07 17:18 | -29.48928 | 31.23752 | 5073 ft | 274 kts | 47° |
| 2026-05-07 17:18 | -29.47625 | 31.25383 | 5806 ft | 280 kts | 48° |
| 2026-05-07 17:18 | -29.46312 | 31.27053 | 6550 ft | 284 kts | 48° |
| 2026-05-07 17:19 | -29.44981 | 31.28754 | 7252 ft | 288 kts | 48° |
| 2026-05-07 17:19 | -29.43632 | 31.30473 | 7970 ft | 292 kts | 47° |
| 2026-05-07 17:19 | -29.42261 | 31.32206 | 8680 ft | 295 kts | 47° |
| 2026-05-07 17:19 | -29.40889 | 31.33933 | 9392 ft | 299 kts | 46° |
| 2026-05-07 17:20 | -29.39480 | 31.35701 | 10055 ft | 303 kts | 46° |
| 2026-05-07 17:20 | -29.38023 | 31.37525 | 10402 ft | 318 kts | 46° |
| 2026-05-07 17:20 | -29.36488 | 31.39447 | 10693 ft | 335 kts | 46° |
| 2026-05-07 17:20 | -29.34881 | 31.41457 | 10969 ft | 350 kts | 46° |
| 2026-05-07 17:21 | -29.33220 | 31.43533 | 11487 ft | 355 kts | 46° |
| 2026-05-07 17:21 | -29.31547 | 31.45625 | 12126 ft | 358 kts | 45° |
| 2026-05-07 17:21 | -29.29856 | 31.47735 | 12757 ft | 360 kts | 45° |
| 2026-05-07 17:21 | -29.28154 | 31.49859 | 13372 ft | 363 kts | 45° |
| 2026-05-07 17:22 | -29.26461 | 31.51972 | 13932 ft | 367 kts | 45° |
| 2026-05-07 17:22 | -29.24730 | 31.54134 | 14440 ft | 370 kts | 45° |
| 2026-05-07 17:22 | -29.22982 | 31.56318 | 14925 ft | 374 kts | 44° |
| 2026-05-07 17:22 | -29.21091 | 31.58353 | 15425 ft | 372 kts | 31° |
| 2026-05-07 17:23 | -29.18803 | 31.59674 | 15921 ft | 368 kts | 14° |
| 2026-05-07 17:23 | -29.16359 | 31.60586 | 16402 ft | 371 kts | 13° |
| 2026-05-07 17:23 | -29.13888 | 31.61485 | 16912 ft | 374 kts | 13° |
| 2026-05-07 17:23 | -29.11398 | 31.62382 | 17438 ft | 377 kts | 13° |
| 2026-05-07 17:24 | -29.08889 | 31.63285 | 17981 ft | 379 kts | 12° |
| 2026-05-07 17:24 | -29.06396 | 31.64188 | 18478 ft | 382 kts | 12° |
| 2026-05-07 17:24 | -29.03857 | 31.65112 | 18968 ft | 384 kts | 12° |
| 2026-05-07 17:24 | -29.01304 | 31.66043 | 19468 ft | 386 kts | 12° |
| 2026-05-07 17:25 | -28.98737 | 31.66978 | 19992 ft | 388 kts | 11° |
| 2026-05-07 17:25 | -28.96156 | 31.67920 | 20496 ft | 391 kts | 11° |
| 2026-05-07 17:25 | -28.93561 | 31.68869 | 20982 ft | 393 kts | 11° |
| 2026-05-07 17:25 | -28.90963 | 31.69818 | 21451 ft | 395 kts | 11° |
| 2026-05-07 17:26 | -28.88333 | 31.70776 | 21897 ft | 397 kts | 10° |
| 2026-05-07 17:26 | -28.85692 | 31.71735 | 22358 ft | 400 kts | 10° |
| 2026-05-07 17:26 | -28.83076 | 31.72684 | 22755 ft | 402 kts | 10° |
| 2026-05-07 17:26 | -28.80405 | 31.73655 | 23196 ft | 404 kts | 10° |
| 2026-05-07 17:27 | -28.77758 | 31.74616 | 23590 ft | 406 kts | 10° |
| 2026-05-07 17:27 | -28.75060 | 31.75592 | 23940 ft | 408 kts | 9° |
| 2026-05-07 17:27 | -28.72350 | 31.76571 | 24291 ft | 410 kts | 9° |
| 2026-05-07 17:27 | -28.69628 | 31.77555 | 24641 ft | 411 kts | 9° |
| 2026-05-07 17:28 | -28.66897 | 31.78546 | 24986 ft | 413 kts | 9° |
| 2026-05-07 17:28 | -28.64156 | 31.79540 | 25319 ft | 414 kts | 9° |
| 2026-05-07 17:28 | -28.61403 | 31.80536 | 25646 ft | 416 kts | 9° |
| 2026-05-07 17:28 | -28.58640 | 31.81537 | 25969 ft | 418 kts | 9° |
| 2026-05-07 17:29 | -28.55905 | 31.82528 | 26278 ft | 419 kts | 9° |
| 2026-05-07 17:29 | -28.53121 | 31.83534 | 26608 ft | 420 kts | 9° |
| 2026-05-07 17:29 | -28.50331 | 31.84540 | 26932 ft | 421 kts | 9° |
| 2026-05-07 17:29 | -28.47533 | 31.85550 | 27245 ft | 423 kts | 9° |
| 2026-05-07 17:30 | -28.44725 | 31.86562 | 27560 ft | 424 kts | 9° |
| 2026-05-07 17:30 | -28.41907 | 31.87578 | 27861 ft | 426 kts | 9° |
| 2026-05-07 17:30 | -28.39077 | 31.88597 | 28151 ft | 427 kts | 9° |
| 2026-05-07 17:30 | -28.36242 | 31.89616 | 28461 ft | 428 kts | 9° |
| 2026-05-07 17:31 | -28.33397 | 31.90640 | 28791 ft | 429 kts | 9° |
| 2026-05-07 17:31 | -28.30598 | 31.91653 | 29202 ft | 427 kts | 9° |
| 2026-05-07 17:31 | -28.27775 | 31.92675 | 29658 ft | 425 kts | 8° |
| 2026-05-07 17:31 | -28.24965 | 31.93690 | 30089 ft | 423 kts | 8° |
| 2026-05-07 17:32 | -28.22163 | 31.94699 | 30435 ft | 421 kts | 8° |
| 2026-05-07 17:32 | -28.19371 | 31.95702 | 30778 ft | 420 kts | 8° |
| 2026-05-07 17:32 | -28.16587 | 31.96700 | 31130 ft | 419 kts | 7° |
| 2026-05-07 17:32 | -28.13810 | 31.97692 | 31464 ft | 418 kts | 7° |
| 2026-05-07 17:33 | -28.11041 | 31.98679 | 31807 ft | 417 kts | 7° |
| 2026-05-07 17:33 | -28.08311 | 31.99656 | 32168 ft | 416 kts | 7° |
| 2026-05-07 17:33 | -28.05561 | 32.00642 | 32513 ft | 415 kts | 7° |
| 2026-05-07 17:33 | -28.02815 | 32.01624 | 32838 ft | 413 kts | 7° |
| 2026-05-07 17:34 | -28.00067 | 32.02602 | 33060 ft | 414 kts | 7° |
| 2026-05-07 17:34 | -27.97320 | 32.03580 | 33396 ft | 413 kts | 7° |
| 2026-05-07 17:34 | -27.94581 | 32.04555 | 33769 ft | 412 kts | 7° |
| 2026-05-07 17:34 | -27.91854 | 32.05525 | 34067 ft | 411 kts | 6° |
| 2026-05-07 17:35 | -27.89128 | 32.06495 | 34321 ft | 410 kts | 7° |
| 2026-05-07 17:35 | -27.86405 | 32.07467 | 34530 ft | 410 kts | 6° |
| 2026-05-07 17:35 | -27.83679 | 32.08441 | 34713 ft | 411 kts | 6° |
| 2026-05-07 17:35 | -27.80987 | 32.09402 | 34851 ft | 412 kts | 6° |
| 2026-05-07 17:36 | -27.75462 | 32.11358 | 34898 ft | 422 kts | 7° |
| 2026-05-07 17:36 | -27.70827 | 32.12993 | 34893 ft | 430 kts | 7° |
| 2026-05-07 17:37 | -27.65048 | 32.15048 | 34891 ft | 440 kts | 7° |
| 2026-05-07 17:37 | -27.59161 | 32.17146 | 34897 ft | 447 kts | 7° |
| 2026-05-07 17:38 | -27.53263 | 32.19245 | 34893 ft | 447 kts | 7° |
| 2026-05-07 17:38 | -27.47325 | 32.21350 | 34893 ft | 447 kts | 7° |
| 2026-05-07 17:39 | -27.41380 | 32.23447 | 34895 ft | 448 kts | 7° |
| 2026-05-07 17:39 | -27.35436 | 32.25551 | 34895 ft | 448 kts | 7° |
| 2026-05-07 17:40 | -27.29523 | 32.27639 | 34895 ft | 448 kts | 7° |
| 2026-05-07 17:40 | -27.23570 | 32.29736 | 34897 ft | 448 kts | 7° |
| 2026-05-07 17:41 | -27.17611 | 32.31832 | 34897 ft | 449 kts | 7° |
| 2026-05-07 17:41 | -27.11656 | 32.33929 | 34896 ft | 449 kts | 7° |
| 2026-05-07 17:42 | -27.05732 | 32.36007 | 34900 ft | 449 kts | 7° |
| 2026-05-07 17:42 | -26.99766 | 32.38098 | 34900 ft | 449 kts | 7° |
| 2026-05-07 17:43 | -26.93797 | 32.40187 | 34902 ft | 449 kts | 7° |
| 2026-05-07 17:43 | -26.87825 | 32.42282 | 34905 ft | 450 kts | 7° |
| 2026-05-07 17:44 | -26.84827 | 32.43158 | 34907 ft | 439 kts | 360° |
| 2026-05-07 17:44 | -26.81853 | 32.43688 | 34891 ft | 439 kts | 359° |
| 2026-05-07 17:44 | -26.75819 | 32.44745 | 34894 ft | 439 kts | 359° |
| 2026-05-07 17:45 | -26.69775 | 32.45817 | 34891 ft | 440 kts | 360° |
| 2026-05-07 17:45 | -26.63731 | 32.46893 | 34889 ft | 440 kts | 360° |
| 2026-05-07 17:46 | -26.57674 | 32.47964 | 34891 ft | 441 kts | 360° |
| 2026-05-07 17:46 | -26.51660 | 32.49026 | 34889 ft | 441 kts | 360° |
| 2026-05-07 17:47 | -26.45604 | 32.50103 | 34891 ft | 441 kts | 360° |
| 2026-05-07 17:47 | -26.39545 | 32.51177 | 34889 ft | 441 kts | 0° |
| 2026-05-07 17:48 | -26.33490 | 32.52251 | 34892 ft | 441 kts | 0° |
| 2026-05-07 17:48 | -26.27437 | 32.53322 | 34882 ft | 441 kts | 0° |
| 2026-05-07 17:49 | -26.21378 | 32.54389 | 34879 ft | 441 kts | 0° |
| 2026-05-07 17:49 | -26.15363 | 32.55436 | 34873 ft | 440 kts | 0° |
| 2026-05-07 17:50 | -26.09301 | 32.56502 | 34867 ft | 440 kts | 0° |
| 2026-05-07 17:50 | -26.03250 | 32.57572 | 34862 ft | 440 kts | 0° |
| 2026-05-07 17:51 | -25.97240 | 32.58617 | 34859 ft | 440 kts | 0° |
| 2026-05-07 17:51 | -25.91177 | 32.59669 | 34868 ft | 440 kts | 0° |
| 2026-05-07 17:52 | -25.85147 | 32.61041 | 34859 ft | 451 kts | 9° |
| 2026-05-07 17:52 | -25.79219 | 32.63211 | 34857 ft | 452 kts | 9° |
| 2026-05-07 17:53 | -25.73245 | 32.65388 | 34845 ft | 453 kts | 9° |
| 2026-05-07 17:53 | -25.67253 | 32.67565 | 34871 ft | 453 kts | 9° |
| 2026-05-07 17:54 | -25.61257 | 32.69737 | 34879 ft | 453 kts | 9° |
| 2026-05-07 17:54 | -25.55261 | 32.71906 | 34886 ft | 454 kts | 9° |
| 2026-05-07 17:55 | -25.49391 | 32.74028 | 34889 ft | 454 kts | 9° |
| 2026-05-07 17:55 | -25.43383 | 32.76199 | 34889 ft | 455 kts | 9° |
| 2026-05-07 17:56 | -25.37360 | 32.78379 | 34900 ft | 455 kts | 9° |
| 2026-05-07 17:56 | -25.31336 | 32.80557 | 34894 ft | 455 kts | 9° |
| 2026-05-07 17:57 | -25.26321 | 32.82362 | 34889 ft | 456 kts | 9° |
| 2026-05-07 17:57 | -25.19295 | 32.84887 | 34887 ft | 457 kts | 10° |
| 2026-05-07 17:58 | -25.13244 | 32.87063 | 34897 ft | 457 kts | 10° |
| 2026-05-07 17:58 | -25.07191 | 32.89235 | 34894 ft | 455 kts | 10° |
| 2026-05-07 17:59 | -25.04222 | 32.90309 | 34894 ft | 442 kts | 10° |
| 2026-05-07 17:59 | -25.01353 | 32.91350 | 34897 ft | 426 kts | 9° |
| 2026-05-07 17:59 | -24.98587 | 32.92350 | 34911 ft | 413 kts | 9° |
| 2026-05-07 17:59 | -24.95881 | 32.93314 | 34897 ft | 416 kts | 9° |
| 2026-05-07 18:00 | -24.93163 | 32.94275 | 34911 ft | 403 kts | 9° |
| 2026-05-07 18:00 | -24.90525 | 32.95215 | 34906 ft | 397 kts | 9° |
| 2026-05-07 18:00 | -24.85257 | 32.97218 | 34907 ft | 402 kts | 11° |
| 2026-05-07 18:01 | -24.80001 | 32.99338 | 34916 ft | 400 kts | 11° |
| 2026-05-07 18:01 | -24.74716 | 33.01462 | 34909 ft | 407 kts | 11° |
| 2026-05-07 18:02 | -24.69587 | 33.03511 | 34917 ft | 389 kts | 11° |
| 2026-05-07 18:02 | -24.67021 | 33.04519 | 34916 ft | 395 kts | 10° |
| 2026-05-07 18:03 | -24.61768 | 33.06560 | 34914 ft | 406 kts | 11° |
| 2026-05-07 18:03 | -24.56360 | 33.08675 | 34917 ft | 418 kts | 11° |
| 2026-05-07 18:04 | -24.50805 | 33.10874 | 34918 ft | 430 kts | 12° |
| 2026-05-07 18:04 | -24.45092 | 33.13131 | 34923 ft | 442 kts | 12° |
| 2026-05-07 18:05 | -24.39266 | 33.15414 | 34920 ft | 453 kts | 12° |
| 2026-05-07 18:05 | -24.33265 | 33.17765 | 34921 ft | 462 kts | 12° |
| 2026-05-07 18:06 | -24.27168 | 33.20164 | 34925 ft | 467 kts | 12° |
| 2026-05-07 18:06 | -24.21056 | 33.22572 | 34929 ft | 467 kts | 12° |
| 2026-05-07 18:07 | -24.14990 | 33.24953 | 34931 ft | 467 kts | 12° |
| 2026-05-07 18:07 | -24.08868 | 33.27334 | 34935 ft | 467 kts | 12° |
| 2026-05-07 18:08 | -24.02732 | 33.29726 | 34934 ft | 467 kts | 13° |
| 2026-05-07 18:08 | -23.96653 | 33.32103 | 34934 ft | 467 kts | 13° |
| 2026-05-07 18:09 | -23.90529 | 33.34492 | 34933 ft | 467 kts | 13° |
| 2026-05-07 18:09 | -23.84408 | 33.36875 | 34930 ft | 467 kts | 13° |
| 2026-05-07 18:10 | -23.78278 | 33.39259 | 34934 ft | 467 kts | 13° |
| 2026-05-07 18:10 | -23.72151 | 33.41637 | 34932 ft | 467 kts | 13° |
| 2026-05-07 18:11 | -23.66066 | 33.44003 | 34933 ft | 468 kts | 13° |
| 2026-05-07 18:11 | -23.59940 | 33.46384 | 34935 ft | 467 kts | 13° |
| 2026-05-07 18:12 | -23.53810 | 33.48757 | 34942 ft | 467 kts | 13° |
| 2026-05-07 18:12 | -23.47676 | 33.51126 | 34944 ft | 468 kts | 13° |
| 2026-05-07 18:13 | -23.41589 | 33.53480 | 34952 ft | 468 kts | 13° |
| 2026-05-07 18:13 | -23.35449 | 33.55846 | 34958 ft | 468 kts | 13° |
| 2026-05-07 18:14 | -23.29318 | 33.58215 | 34957 ft | 467 kts | 13° |
| 2026-05-07 18:14 | -23.23188 | 33.60579 | 34954 ft | 467 kts | 13° |
| 2026-05-07 18:15 | -23.17098 | 33.62929 | 34955 ft | 468 kts | 13° |
| 2026-05-07 18:15 | -23.10965 | 33.65291 | 34953 ft | 468 kts | 13° |
| 2026-05-07 18:16 | -23.04829 | 33.67652 | 34959 ft | 468 kts | 13° |
| 2026-05-07 18:16 | -22.98694 | 33.70003 | 34955 ft | 468 kts | 13° |
| 2026-05-07 18:17 | -22.92547 | 33.72359 | 34966 ft | 468 kts | 13° |
| 2026-05-07 18:17 | -22.86452 | 33.74699 | 34970 ft | 468 kts | 13° |
| 2026-05-07 18:18 | -22.80312 | 33.77050 | 34970 ft | 468 kts | 13° |
| 2026-05-07 18:18 | -22.74170 | 33.79396 | 34978 ft | 468 kts | 13° |
| 2026-05-07 18:19 | -22.68027 | 33.81744 | 34982 ft | 468 kts | 13° |
| 2026-05-07 18:19 | -22.61929 | 33.84078 | 34987 ft | 468 kts | 13° |
| 2026-05-07 18:20 | -22.55793 | 33.86425 | 34986 ft | 468 kts | 13° |
| 2026-05-07 18:20 | -22.49654 | 33.88759 | 34987 ft | 468 kts | 13° |
| 2026-05-07 18:21 | -22.43506 | 33.91048 | 34986 ft | 467 kts | 12° |
| 2026-05-07 18:21 | -22.37392 | 33.93286 | 34988 ft | 467 kts | 12° |
| 2026-05-07 18:22 | -22.31242 | 33.95542 | 34989 ft | 467 kts | 12° |
| 2026-05-07 18:22 | -22.25092 | 33.97806 | 34990 ft | 467 kts | 13° |
| 2026-05-07 18:23 | -22.18943 | 34.00074 | 34990 ft | 467 kts | 13° |
| 2026-05-07 18:23 | -22.12795 | 34.02335 | 34988 ft | 467 kts | 12° |
| 2026-05-07 18:24 | -22.06681 | 34.04546 | 34990 ft | 466 kts | 12° |
| 2026-05-07 18:24 | -22.00529 | 34.06751 | 34985 ft | 466 kts | 12° |
| 2026-05-07 18:25 | -21.94369 | 34.08972 | 34985 ft | 466 kts | 12° |
| 2026-05-07 18:25 | -21.88214 | 34.11199 | 34995 ft | 467 kts | 12° |
| 2026-05-07 18:26 | -21.82061 | 34.13413 | 34990 ft | 467 kts | 12° |
| 2026-05-07 18:26 | -21.75943 | 34.15611 | 34989 ft | 467 kts | 12° |
| 2026-05-07 18:27 | -21.69778 | 34.17828 | 34990 ft | 467 kts | 12° |
| 2026-05-07 18:27 | -21.63614 | 34.20042 | 34993 ft | 467 kts | 12° |
| 2026-05-07 18:27 | -21.60541 | 34.21145 | 34764 ft | 464 kts | 12° |
| 2026-05-07 18:28 | -21.57497 | 34.22240 | 34276 ft | 459 kts | 12° |
| 2026-05-07 18:28 | -21.54485 | 34.23319 | 33724 ft | 454 kts | 12° |
| 2026-05-07 18:28 | -21.51501 | 34.24388 | 33163 ft | 449 kts | 12° |
| 2026-05-07 18:28 | -21.48588 | 34.25432 | 32629 ft | 445 kts | 12° |
| 2026-05-07 18:29 | -21.45669 | 34.26478 | 32112 ft | 441 kts | 12° |
| 2026-05-07 18:29 | -21.42760 | 34.27518 | 31152 ft | 444 kts | 12° |
| 2026-05-07 18:29 | -21.39861 | 34.28555 | 30654 ft | 428 kts | 12° |
| 2026-05-07 18:29 | -21.37118 | 34.29546 | 30513 ft | 404 kts | 12° |
| 2026-05-07 18:30 | -21.34503 | 34.30491 | 30105 ft | 391 kts | 12° |
| 2026-05-07 18:30 | -21.31950 | 34.31404 | 29410 ft | 384 kts | 12° |
| 2026-05-07 18:30 | -21.29429 | 34.32299 | 28663 ft | 379 kts | 12° |
| 2026-05-07 18:30 | -21.26937 | 34.33183 | 27917 ft | 376 kts | 12° |
| 2026-05-07 18:31 | -21.24464 | 34.34060 | 27186 ft | 373 kts | 12° |
| 2026-05-07 18:31 | -21.22046 | 34.34920 | 26470 ft | 370 kts | 12° |
| 2026-05-07 18:31 | -21.19614 | 34.35783 | 25753 ft | 367 kts | 13° |
| 2026-05-07 18:31 | -21.17201 | 34.36644 | 25042 ft | 364 kts | 13° |
| 2026-05-07 18:32 | -21.14810 | 34.37496 | 24347 ft | 361 kts | 13° |
| 2026-05-07 18:32 | -21.12434 | 34.38341 | 23676 ft | 359 kts | 13° |
| 2026-05-07 18:32 | -21.10201 | 34.39135 | 22935 ft | 356 kts | 13° |
| 2026-05-07 18:32 | -21.07864 | 34.39971 | 22205 ft | 352 kts | 13° |
| 2026-05-07 18:33 | -21.05552 | 34.40799 | 21508 ft | 348 kts | 13° |
| 2026-05-07 18:33 | -21.03268 | 34.41611 | 20825 ft | 344 kts | 13° |
| 2026-05-07 18:33 | -21.01039 | 34.42401 | 20168 ft | 340 kts | 14° |
| 2026-05-07 18:33 | -20.98805 | 34.43192 | 19520 ft | 336 kts | 14° |
| 2026-05-07 18:34 | -20.96633 | 34.44096 | 18887 ft | 336 kts | 22° |
| 2026-05-07 18:34 | -20.94602 | 34.45333 | 18263 ft | 334 kts | 27° |
| 2026-05-07 18:34 | -20.92610 | 34.46598 | 17556 ft | 331 kts | 26° |
| 2026-05-07 18:34 | -20.90636 | 34.47844 | 16873 ft | 328 kts | 26° |
| 2026-05-07 18:35 | -20.88674 | 34.49074 | 16235 ft | 325 kts | 26° |
| 2026-05-07 18:35 | -20.86728 | 34.50295 | 16024 ft | 326 kts | 26° |
| 2026-05-07 18:35 | -20.84765 | 34.51520 | 15972 ft | 327 kts | 26° |
| 2026-05-07 18:35 | -20.82825 | 34.52729 | 15984 ft | 327 kts | 26° |
| 2026-05-07 18:36 | -20.80862 | 34.53957 | 15983 ft | 327 kts | 26° |
| 2026-05-07 18:36 | -20.78901 | 34.55188 | 15975 ft | 327 kts | 26° |
| 2026-05-07 18:36 | -20.76941 | 34.56418 | 15979 ft | 327 kts | 26° |
| 2026-05-07 18:36 | -20.74980 | 34.57650 | 15890 ft | 327 kts | 26° |
| 2026-05-07 18:37 | -20.73024 | 34.58878 | 15647 ft | 325 kts | 26° |
| 2026-05-07 18:37 | -20.71073 | 34.60102 | 15409 ft | 324 kts | 26° |
| 2026-05-07 18:37 | -20.69131 | 34.61321 | 15175 ft | 324 kts | 26° |
| 2026-05-07 18:37 | -20.67191 | 34.62538 | 14940 ft | 323 kts | 26° |
| 2026-05-07 18:38 | -20.65280 | 34.63734 | 14713 ft | 323 kts | 26° |
| 2026-05-07 18:38 | -20.63344 | 34.64944 | 14478 ft | 322 kts | 27° |
| 2026-05-07 18:38 | -20.61415 | 34.66152 | 14248 ft | 321 kts | 27° |
| 2026-05-07 18:38 | -20.59489 | 34.67360 | 14017 ft | 321 kts | 27° |
| 2026-05-07 18:39 | -20.57565 | 34.68564 | 13797 ft | 320 kts | 27° |
| 2026-05-07 18:39 | -20.55641 | 34.69763 | 13545 ft | 320 kts | 27° |
| 2026-05-07 18:39 | -20.53724 | 34.70956 | 13284 ft | 319 kts | 27° |
| 2026-05-07 18:39 | -20.51813 | 34.72147 | 13032 ft | 317 kts | 27° |
| 2026-05-07 18:40 | -20.49936 | 34.73319 | 12785 ft | 316 kts | 27° |
| 2026-05-07 18:40 | -20.48041 | 34.74503 | 12537 ft | 315 kts | 27° |
| 2026-05-07 18:40 | -20.46154 | 34.75680 | 12290 ft | 314 kts | 27° |
| 2026-05-07 18:40 | -20.44271 | 34.76853 | 12041 ft | 313 kts | 27° |
| 2026-05-07 18:41 | -20.42398 | 34.78020 | 11801 ft | 312 kts | 27° |
| 2026-05-07 18:41 | -20.40531 | 34.79186 | 11558 ft | 311 kts | 27° |
| 2026-05-07 18:41 | -20.38671 | 34.80345 | 11319 ft | 309 kts | 27° |
| 2026-05-07 18:41 | -20.36818 | 34.81500 | 11082 ft | 308 kts | 27° |
| 2026-05-07 18:42 | -20.34973 | 34.82648 | 10843 ft | 307 kts | 27° |
| 2026-05-07 18:42 | -20.33135 | 34.83791 | 10610 ft | 305 kts | 28° |
| 2026-05-07 18:42 | -20.31328 | 34.84916 | 10378 ft | 304 kts | 28° |
| 2026-05-07 18:42 | -20.29507 | 34.86053 | 10149 ft | 303 kts | 28° |
| 2026-05-07 18:43 | -20.27694 | 34.87184 | 9921 ft | 301 kts | 28° |
| 2026-05-07 18:43 | -20.25891 | 34.88308 | 9802 ft | 301 kts | 28° |
| 2026-05-07 18:43 | -20.24087 | 34.89428 | 9682 ft | 300 kts | 28° |
| 2026-05-07 18:43 | -20.22288 | 34.90546 | 9543 ft | 299 kts | 28° |
| 2026-05-07 18:44 | -20.20492 | 34.91665 | 9419 ft | 298 kts | 28° |
| 2026-05-07 18:44 | -20.18701 | 34.92778 | 9294 ft | 298 kts | 28° |
| 2026-05-07 18:44 | -20.16915 | 34.93890 | 9168 ft | 297 kts | 28° |
| 2026-05-07 18:44 | -20.15136 | 34.94997 | 9053 ft | 296 kts | 28° |
| 2026-05-07 18:45 | -20.13359 | 34.96100 | 8913 ft | 295 kts | 28° |
| 2026-05-07 18:45 | -20.11613 | 34.97183 | 8772 ft | 293 kts | 28° |
| 2026-05-07 18:45 | -20.09875 | 34.98261 | 8467 ft | 287 kts | 28° |
| 2026-05-07 18:45 | -20.08151 | 34.99330 | 8128 ft | 286 kts | 28° |
| 2026-05-07 18:46 | -20.06437 | 35.00392 | 7800 ft | 285 kts | 28° |
| 2026-05-07 18:46 | -20.04729 | 35.01453 | 7451 ft | 284 kts | 28° |
| 2026-05-07 18:46 | -20.03021 | 35.02512 | 7107 ft | 284 kts | 28° |
| 2026-05-07 18:46 | -20.01319 | 35.03566 | 6764 ft | 283 kts | 28° |
| 2026-05-07 18:47 | -19.99620 | 35.04617 | 6425 ft | 283 kts | 28° |
| 2026-05-07 18:47 | -19.97921 | 35.05667 | 6062 ft | 282 kts | 29° |
| 2026-05-07 18:47 | -19.96254 | 35.06699 | 5715 ft | 281 kts | 29° |
| 2026-05-07 18:47 | -19.94564 | 35.07724 | 5379 ft | 279 kts | 25° |
| 2026-05-07 18:48 | -19.92774 | 35.08393 | 5034 ft | 267 kts | 13° |
| 2026-05-07 18:48 | -19.91010 | 35.08876 | 4697 ft | 259 kts | 14° |
| 2026-05-07 18:48 | -19.89303 | 35.09354 | 4358 ft | 248 kts | 14° |
| 2026-05-07 18:48 | -19.87676 | 35.09813 | 4053 ft | 236 kts | 14° |
| 2026-05-07 18:49 | -19.86103 | 35.10079 | 3756 ft | 223 kts | 352° |
| 2026-05-07 18:49 | -19.84742 | 35.09450 | 3468 ft | 211 kts | 315° |
| 2026-05-07 18:49 | -19.84027 | 35.08173 | 3239 ft | 197 kts | 285° |
| 2026-05-07 18:49 | -19.83695 | 35.06821 | 3060 ft | 185 kts | 284° |
| 2026-05-07 18:50 | -19.83375 | 35.05539 | 2772 ft | 181 kts | 284° |
| 2026-05-07 18:50 | -19.83041 | 35.04209 | 2356 ft | 184 kts | 284° |
| 2026-05-07 18:50 | -19.82720 | 35.02935 | 2179 ft | 174 kts | 283° |
| 2026-05-07 18:50 | -19.82417 | 35.01738 | 1983 ft | 163 kts | 283° |
| 2026-05-07 18:51 | -19.82131 | 35.00602 | 1801 ft | 157 kts | 282° |
| 2026-05-07 18:51 | -19.81855 | 34.99511 | 1639 ft | 150 kts | 282° |
| 2026-05-07 18:51 | -19.81585 | 34.98443 | 1411 ft | 149 kts | 282° |
| 2026-05-07 18:51 | -19.81319 | 34.97400 | 1214 ft | 148 kts | 283° |
| 2026-05-07 18:52 | -19.81053 | 34.96350 | 1000 ft | 147 kts | 283° |
| 2026-05-07 18:52 | -19.80789 | 34.95305 | 806 ft | 146 kts | 283° |
| 2026-05-07 18:52 | -19.80528 | 34.94272 | 602 ft | 144 kts | 284° |
| 2026-05-07 18:52 | -19.80273 | 34.93250 | 364 ft | 142 kts | 284° |
| 2026-05-07 18:53 | -19.80019 | 34.92240 | 144 ft | 142 kts | 284° |
| 2026-05-07 18:53 | -19.79759 | 34.91245 | 45 ft | 132 kts | 285° |
| 2026-05-07 18:53 | -19.79593 | 34.90569 | 42 ft | 35 kts | 283° |
| 2026-05-07 18:53 | -19.79610 | 34.90461 | 43 ft | 1 kts | 189° |
| 2026-05-07 18:54 | -19.79634 | 34.90457 | 43 ft | 7 kts | 189° |
| 2026-05-07 18:54 | -19.79669 | 34.90448 | 44 ft | 9 kts | 194° |
| 2026-05-07 18:54 | -19.79719 | 34.90413 | 44 ft | 9 kts | 251° |
| 2026-05-07 18:54 | -19.79728 | 34.90348 | 44 ft | 8 kts | 217° |
| 2026-05-07 18:55 | -19.79768 | 34.90301 | 44 ft | 10 kts | 246° |
| 2026-05-07 18:55 | -19.79758 | 34.90227 | 42 ft | 11 kts | 289° |
| 2026-05-07 18:55 | -19.79736 | 34.90139 | 44 ft | 13 kts | 288° |
| 2026-05-07 18:55 | -19.79690 | 34.90090 | 44 ft | 8 kts | 9° |
| 2026-05-07 18:56 | -19.79681 | 34.90094 | 44 ft | 2 kts | 27° |